Miami, FL

5:09 PM EDT on April 28, 2017 (GMT -0400)
Miami International | | Change Station

Elev 7 ft 25.79 °N, 80.29 °W | Updated 16 minutes ago

Mostly Cloudy
Mostly Cloudy
86 °F
Feels Like 92 °F
N
16
Wind Variable Wind from East
Gusts 24 mph

Today
High -- | Low -- °F
--% Chance of Precip.
Yesterday
High -- | Low -- °F
Precip. -- in
Pressure 30.06 in
Visibility 10.0 miles
Clouds Mostly Cloudy 2600 ft
Mostly Cloudy 30000 ft
Heat Index 92 °F
Dew Point 71 °F
Humidity 61%
Rainfall 0.00 in
Snow Depth Not available.
6:46 AM 7:51 PM
Waxing Crescent, 8% visible
METAR KMIA 282053Z 09014G21KT 10SM BKN026 BKN300 30/22 A3005 RMK AO2 SLP177 T03000217 56013
Pressure 30.06 in
Visibility 10.0 miles
Clouds Mostly Cloudy 2600 ft
Mostly Cloudy 30000 ft
Heat Index 92 °F
Dew Point 71 °F
Humidity 61%
Rainfall 0.00 in
Snow Depth Not available.
6:46 AM 7:51 PM
Waxing Crescent, 8% visible
METAR KMIA 282053Z 09014G21KT 10SM BKN026 BKN300 30/22 A3005 RMK AO2 SLP177 T03000217 56013

Get Severe Weather Alerts

Thanks for signing up!

Be on the lookout for a verification email in your inbox.

You'll start receiving the daily forecast at 8 AM.

×

10-Day Weather Forecast

Almanac

Astronomy

Apr. 28, 2017 Rise Set
Actual Time
Civil Twilight
Nautical Twilight
Astronomical Twilight
Moon
Length of Visible Light
Length of Day
Tomorrow will be .
, % of the Moon is Illuminated

Today's Extremes

State Highs State Lows

Community

WunderPhotos

WunderBlog® & News

Nearby

Air Quality

  Air Quality AQ Index Pollutant
Not available.

Snow Depth

Station Depth Elevation

Earthquake Activity

City Distance Mag. Time & Date
Minimum magnitude displayed is 2.5.

Coastal Water Temperatures

Place Temperature

Stations

Nearby Weather Stations

Station Location Temp. Windchill Dew Point Humidity Wind Precip. Elev Updated Type
                   

Watches & Warnings

There are currently no watches in effect.